createdAt,value
2023-05-26T00:00:15.648Z,9.79
2023-05-26T00:02:43.610Z,9.75
2023-05-26T00:05:11.547Z,9.74
2023-05-26T00:07:41.632Z,9.75
2023-05-26T00:10:11.436Z,9.72
2023-05-26T00:12:40.071Z,9.66
2023-05-26T00:15:08.977Z,9.66
2023-05-26T00:17:37.538Z,9.67
2023-05-26T00:20:08.747Z,9.63
2023-05-26T00:22:36.396Z,9.58
2023-05-26T00:25:04.613Z,9.57
2023-05-26T00:27:31.880Z,9.55
2023-05-26T00:29:59.390Z,9.51
2023-05-26T00:32:27.232Z,9.51
2023-05-26T00:34:54.545Z,9.43
2023-05-26T00:37:23.326Z,9.44
2023-05-26T00:39:50.631Z,9.39
2023-05-26T00:42:18.804Z,9.35
2023-05-26T00:44:46.181Z,9.34
2023-05-26T00:47:13.580Z,9.33
2023-05-26T00:49:41.082Z,9.28
2023-05-26T00:52:08.741Z,9.27
2023-05-26T00:54:36.582Z,9.22
2023-05-26T00:57:05.125Z,9.23
2023-05-26T00:59:33.543Z,9.18
2023-05-26T01:02:02.370Z,9.15
2023-05-26T01:04:30.246Z,9.14
2023-05-26T01:06:57.780Z,9.14
2023-05-26T01:09:25.480Z,9.10
2023-05-26T01:12:08.778Z,9.08
2023-05-26T01:15:02.869Z,8.98
2023-05-26T01:18:11.891Z,9.01
2023-05-26T01:21:06.875Z,8.95
2023-05-26T01:24:22.081Z,8.92
2023-05-26T01:27:09.657Z,8.87
2023-05-26T01:29:37.588Z,8.83
2023-05-26T01:32:17.004Z,8.78
2023-05-26T01:34:44.383Z,8.77
2023-05-26T01:37:12.070Z,8.74
2023-05-26T01:39:39.501Z,8.69
2023-05-26T01:42:31.387Z,8.64
2023-05-26T01:45:17.892Z,8.64
2023-05-26T01:47:56.267Z,8.59
2023-05-26T01:50:58.511Z,8.57
2023-05-26T01:53:32.004Z,8.53
2023-05-26T01:56:02.283Z,8.51
2023-05-26T01:58:31.838Z,8.45
2023-05-26T02:00:59.604Z,8.44
2023-05-26T02:03:28.266Z,8.42
2023-05-26T02:05:56.043Z,8.40
2023-05-26T02:08:23.578Z,8.37
2023-05-26T02:10:51.102Z,8.34
2023-05-26T02:13:18.555Z,8.34
2023-05-26T02:15:46.048Z,8.31
2023-05-26T02:18:13.852Z,8.23
2023-05-26T02:20:41.799Z,8.23
2023-05-26T02:23:09.357Z,8.23
2023-05-26T02:25:38.090Z,8.21
2023-05-26T02:28:05.815Z,8.20
2023-05-26T02:30:34.552Z,8.16
2023-05-26T02:33:03.402Z,8.17
2023-05-26T02:35:30.817Z,8.16
2023-05-26T02:37:58.187Z,8.14
2023-05-26T02:40:26.554Z,8.12
2023-05-26T02:42:53.830Z,8.07
2023-05-26T02:45:21.404Z,8.05
2023-05-26T02:47:48.767Z,8.04
2023-05-26T02:50:16.423Z,7.99
2023-05-26T02:52:43.794Z,7.97
2023-05-26T02:55:12.641Z,7.95
2023-05-26T02:57:40.330Z,7.89
2023-05-26T03:00:12.233Z,7.90
2023-05-26T03:02:40.294Z,7.86
2023-05-26T03:05:08.553Z,7.90
2023-05-26T03:07:35.957Z,7.85
2023-05-26T03:10:05.656Z,7.90
2023-05-26T03:12:33.142Z,7.87
2023-05-26T03:15:04.858Z,7.84
2023-05-26T03:17:33.120Z,7.87
2023-05-26T03:20:00.645Z,7.82
2023-05-26T03:22:41.265Z,7.76
2023-05-26T03:25:16.316Z,7.72
2023-05-26T03:27:48.501Z,7.76
2023-05-26T03:30:16.064Z,7.75
2023-05-26T03:32:45.604Z,7.71
2023-05-26T03:35:13.779Z,7.78
2023-05-26T03:37:41.223Z,7.75
2023-05-26T03:40:11.434Z,7.73
2023-05-26T03:42:39.603Z,7.75
2023-05-26T03:45:08.028Z,7.68
2023-05-26T03:47:35.987Z,7.68
2023-05-26T03:50:06.758Z,7.66
2023-05-26T03:52:37.715Z,7.66
2023-05-26T03:55:10.624Z,7.68
2023-05-26T03:57:41.406Z,7.66
2023-05-26T04:00:13.793Z,7.67
2023-05-26T04:02:52.815Z,7.68
2023-05-26T04:05:20.571Z,7.66
2023-05-26T04:07:48.312Z,7.68
2023-05-26T04:10:15.975Z,7.64
2023-05-26T04:12:44.253Z,7.70
2023-05-26T04:15:12.017Z,7.70
2023-05-26T04:17:39.771Z,7.73
2023-05-26T04:20:12.200Z,7.74
2023-05-26T04:22:41.091Z,7.75
2023-05-26T04:25:09.425Z,7.76
2023-05-26T04:27:58.617Z,7.82
2023-05-26T04:30:44.092Z,7.85
2023-05-26T04:33:14.119Z,7.87
2023-05-26T04:35:51.611Z,7.92
2023-05-26T04:38:21.643Z,7.97
2023-05-26T04:40:49.914Z,8.08
2023-05-26T04:43:17.435Z,8.16
2023-05-26T04:45:45.303Z,8.30
2023-05-26T04:48:13.612Z,8.37
2023-05-26T04:50:42.576Z,8.51
2023-05-26T04:53:10.750Z,8.52
2023-05-26T04:55:38.141Z,8.57
2023-05-26T04:58:09.089Z,8.62
2023-05-26T05:00:37.515Z,8.59
2023-05-26T05:03:40.754Z,8.75
2023-05-26T05:06:13.020Z,8.83
2023-05-26T05:08:40.619Z,8.82
2023-05-26T05:11:08.788Z,8.85
2023-05-26T05:13:42.073Z,8.92
2023-05-26T05:16:09.660Z,8.93
2023-05-26T05:18:38.197Z,8.96
2023-05-26T05:21:06.134Z,8.97
2023-05-26T05:23:35.494Z,9.01
2023-05-26T05:26:04.734Z,9.11
2023-05-26T05:28:34.025Z,9.14
2023-05-26T05:31:09.283Z,9.16
2023-05-26T05:33:44.064Z,9.22
2023-05-26T05:36:12.463Z,9.20
2023-05-26T05:38:40.556Z,9.24
2023-05-26T05:41:08.019Z,9.35
2023-05-26T05:43:36.314Z,9.42
2023-05-26T05:46:05.620Z,9.49
2023-05-26T05:48:53.338Z,9.52
2023-05-26T05:51:34.364Z,9.71
2023-05-26T05:54:05.853Z,9.77
2023-05-26T05:56:35.049Z,9.80
2023-05-26T05:59:03.036Z,9.94
2023-05-26T06:01:31.505Z,9.95
2023-05-26T06:04:00.183Z,9.97
2023-05-26T06:06:27.569Z,10.00
2023-05-26T06:08:54.902Z,10.04
2023-05-26T06:11:22.455Z,10.03
2023-05-26T06:13:49.884Z,10.17
2023-05-26T06:16:17.283Z,10.17
2023-05-26T06:18:44.839Z,10.29
2023-05-26T06:21:13.472Z,10.30
2023-05-26T06:23:42.427Z,10.25
2023-05-26T06:26:10.722Z,10.36
2023-05-26T06:28:37.992Z,10.39
2023-05-26T06:31:06.642Z,10.46
2023-05-26T06:33:40.763Z,10.54
2023-05-26T06:36:09.256Z,10.58
2023-05-26T06:38:37.741Z,10.62
2023-05-26T06:41:23.303Z,10.69
2023-05-26T06:43:50.723Z,10.72
2023-05-26T06:46:18.164Z,10.72
2023-05-26T06:48:46.017Z,10.76
2023-05-26T06:51:24.027Z,10.81
2023-05-26T06:53:51.431Z,10.91
2023-05-26T06:56:19.598Z,11.08
2023-05-26T06:58:47.133Z,11.15
2023-05-26T07:01:14.603Z,11.18
2023-05-26T07:03:42.066Z,11.13
2023-05-26T07:06:09.544Z,11.13
2023-05-26T07:08:39.788Z,11.23
2023-05-26T07:11:21.041Z,11.31
2023-05-26T07:13:55.801Z,11.35
2023-05-26T07:16:23.511Z,11.55
2023-05-26T07:18:51.619Z,11.69
2023-05-26T07:21:22.945Z,11.82
2023-05-26T07:23:56.165Z,11.80
2023-05-26T07:26:25.415Z,11.86
2023-05-26T07:28:53.590Z,12.07
2023-05-26T07:31:23.226Z,12.15
2023-05-26T07:33:55.877Z,12.08
2023-05-26T07:36:23.376Z,12.09
2023-05-26T07:38:51.025Z,12.09
2023-05-26T07:41:18.692Z,12.17
2023-05-26T07:43:46.218Z,12.21
2023-05-26T07:46:15.612Z,12.21
2023-05-26T07:48:42.963Z,12.15
2023-05-26T07:51:10.552Z,12.34
2023-05-26T07:53:38.871Z,12.52
2023-05-26T07:56:08.420Z,12.57
2023-05-26T07:58:37.042Z,12.65
2023-05-26T08:01:08.633Z,12.85
2023-05-26T08:03:37.354Z,12.94
2023-05-26T08:06:17.582Z,13.16
2023-05-26T08:08:52.071Z,13.61
2023-05-26T08:11:19.483Z,13.95
2023-05-26T08:13:46.828Z,14.32
2023-05-26T08:16:17.353Z,14.67
2023-05-26T08:18:46.018Z,15.13
2023-05-26T08:21:14.858Z,15.39
2023-05-26T08:23:42.784Z,15.71
2023-05-26T08:26:10.500Z,15.90
2023-05-26T08:28:37.859Z,16.00
2023-05-26T08:31:05.511Z,16.16
2023-05-26T08:33:32.987Z,16.34
2023-05-26T08:36:00.410Z,16.54
2023-05-26T08:38:28.403Z,16.65
2023-05-26T08:41:01.836Z,16.83
2023-05-26T08:43:53.432Z,16.87
2023-05-26T08:46:23.988Z,16.90
2023-05-26T08:48:54.280Z,17.18
2023-05-26T08:51:21.657Z,17.39
2023-05-26T08:53:51.161Z,17.55
2023-05-26T08:56:19.487Z,17.83
2023-05-26T08:58:50.676Z,17.95
2023-05-26T09:01:20.148Z,17.86
2023-05-26T09:03:47.563Z,17.95
2023-05-26T09:06:16.645Z,18.01
2023-05-26T09:08:43.949Z,18.19
2023-05-26T09:11:26.847Z,18.28
2023-05-26T09:13:57.344Z,18.39
2023-05-26T09:16:28.948Z,18.64
2023-05-26T09:18:59.735Z,18.80
2023-05-26T09:21:28.873Z,18.95
2023-05-26T09:24:01.747Z,19.05
2023-05-26T09:26:36.281Z,19.21
2023-05-26T09:29:06.618Z,19.08
2023-05-26T09:31:50.641Z,19.01
2023-05-26T09:34:22.298Z,18.99
2023-05-26T09:36:54.870Z,19.03
2023-05-26T09:39:33.883Z,19.04
2023-05-26T09:42:07.871Z,19.03
2023-05-26T09:44:37.191Z,19.13
2023-05-26T09:47:08.675Z,19.14
2023-05-26T09:49:41.410Z,19.19
2023-05-26T09:52:13.108Z,19.32
2023-05-26T09:54:42.977Z,19.50
2023-05-26T09:57:15.015Z,19.78
2023-05-26T09:59:51.167Z,19.84
2023-05-26T10:02:25.107Z,19.95
2023-05-26T10:04:54.628Z,20.02
2023-05-26T10:07:23.368Z,20.03
2023-05-26T10:10:04.833Z,20.27
2023-05-26T10:12:35.609Z,20.40
2023-05-26T10:15:05.784Z,20.50
2023-05-26T10:17:33.790Z,20.59
2023-05-26T10:20:03.690Z,20.71
2023-05-26T10:23:13.989Z,20.71
2023-05-26T10:26:26.272Z,20.56
2023-05-26T10:29:11.279Z,20.71
2023-05-26T10:31:41.670Z,20.78
2023-05-26T10:34:46.207Z,20.95
2023-05-26T10:37:18.976Z,21.07
2023-05-26T10:39:46.399Z,21.02
2023-05-26T10:42:32.597Z,20.92
2023-05-26T10:45:19.702Z,20.99
2023-05-26T10:47:50.084Z,21.21
2023-05-26T10:50:17.901Z,21.52
2023-05-26T10:52:52.487Z,21.55
2023-05-26T10:55:54.510Z,21.62
2023-05-26T10:58:32.984Z,21.41
2023-05-26T11:01:15.784Z,21.34
2023-05-26T11:03:50.150Z,21.36
2023-05-26T11:06:36.809Z,21.33
2023-05-26T11:09:12.044Z,21.35
2023-05-26T11:12:13.503Z,21.55
2023-05-26T11:14:41.297Z,21.76
2023-05-26T11:17:08.838Z,21.79
2023-05-26T11:19:39.623Z,21.97
2023-05-26T11:22:14.024Z,22.08
2023-05-26T11:24:41.591Z,22.03
2023-05-26T11:27:08.915Z,22.03
2023-05-26T11:29:37.540Z,21.89
2023-05-26T11:32:05.849Z,21.80
2023-05-26T11:34:35.544Z,21.44
2023-05-26T11:37:03.079Z,21.28
2023-05-26T11:39:36.948Z,21.11
2023-05-26T11:42:11.675Z,21.10
2023-05-26T11:44:40.510Z,21.09
2023-05-26T11:47:08.507Z,21.17
2023-05-26T11:49:35.972Z,21.12
2023-05-26T11:52:03.866Z,21.18
2023-05-26T11:54:34.199Z,21.16
2023-05-26T11:57:01.703Z,21.11
2023-05-26T11:59:31.272Z,21.02
2023-05-26T12:02:04.251Z,20.88
2023-05-26T12:04:34.958Z,20.82
2023-05-26T12:07:02.951Z,20.85
2023-05-26T12:09:30.673Z,20.84
2023-05-26T12:11:58.865Z,20.83
2023-05-26T12:14:28.399Z,20.89
2023-05-26T12:16:56.991Z,20.85
2023-05-26T12:19:26.372Z,20.84
2023-05-26T12:21:58.676Z,20.83
2023-05-26T12:24:38.765Z,20.71
2023-05-26T12:27:08.101Z,20.56
2023-05-26T12:29:45.453Z,20.45
2023-05-26T12:32:13.355Z,20.36
2023-05-26T12:34:42.945Z,20.52
2023-05-26T12:37:11.331Z,20.76
2023-05-26T12:39:38.844Z,20.88
2023-05-26T12:42:08.230Z,20.88
2023-05-26T12:44:35.676Z,20.86
2023-05-26T12:47:03.177Z,20.82
2023-05-26T12:49:30.555Z,20.88
2023-05-26T12:51:57.828Z,21.03
2023-05-26T12:54:25.198Z,21.09
2023-05-26T12:56:54.118Z,21.14
2023-05-26T12:59:24.241Z,21.04
2023-05-26T13:01:51.703Z,21.20
2023-05-26T13:04:19.820Z,21.35
2023-05-26T13:06:56.454Z,21.52
2023-05-26T13:09:25.983Z,21.63
2023-05-26T13:11:54.381Z,21.71
2023-05-26T13:14:21.961Z,21.89
2023-05-26T13:16:49.475Z,22.09
2023-05-26T13:19:17.912Z,22.36
2023-05-26T13:21:47.851Z,22.49
2023-05-26T13:24:16.037Z,22.33
2023-05-26T13:26:45.061Z,22.23
2023-05-26T13:29:13.682Z,22.31
2023-05-26T13:31:42.724Z,22.30
2023-05-26T13:34:10.546Z,22.51
2023-05-26T13:36:41.393Z,22.82
2023-05-26T13:39:08.905Z,23.01
2023-05-26T13:41:37.246Z,23.03
2023-05-26T13:44:05.010Z,23.11
2023-05-26T13:46:32.389Z,23.40
2023-05-26T13:49:01.052Z,23.80
2023-05-26T13:51:29.422Z,24.03
2023-05-26T13:53:58.275Z,24.15
2023-05-26T13:56:27.431Z,24.36
2023-05-26T13:58:55.653Z,24.59
2023-05-26T14:03:56.850Z,24.86
2023-05-26T14:06:26.132Z,24.81
2023-05-26T14:08:54.556Z,24.94
2023-05-26T14:11:23.593Z,24.87
2023-05-26T14:13:52.569Z,24.77
2023-05-26T14:16:20.980Z,24.66
2023-05-26T14:19:04.368Z,24.58
2023-05-26T14:22:00.534Z,24.62
2023-05-26T14:24:24.873Z,24.78
2023-05-26T14:26:52.286Z,24.81
2023-05-26T14:29:22.080Z,24.98
2023-05-26T14:31:53.838Z,25.08
2023-05-26T14:34:21.624Z,25.21
2023-05-26T14:36:48.971Z,25.21
2023-05-26T14:39:16.538Z,25.15
2023-05-26T14:41:44.689Z,25.08
2023-05-26T14:44:12.137Z,25.02
2023-05-26T14:46:41.163Z,24.97
2023-05-26T14:49:12.021Z,25.10
2023-05-26T14:51:39.463Z,25.16
2023-05-26T14:54:07.435Z,25.04
2023-05-26T14:56:35.154Z,24.91
2023-05-26T14:59:03.359Z,24.99
2023-05-26T15:01:31.031Z,25.10
2023-05-26T15:04:13.577Z,25.15
2023-05-26T15:06:43.069Z,25.33
2023-05-26T15:09:10.419Z,25.38
2023-05-26T15:11:37.794Z,25.33
2023-05-26T15:14:06.917Z,25.29
2023-05-26T15:16:37.639Z,25.34
2023-05-26T15:19:05.721Z,25.27
2023-05-26T15:21:38.853Z,25.31
2023-05-26T15:24:08.847Z,25.35
2023-05-26T15:26:36.842Z,25.33
2023-05-26T15:29:04.336Z,25.26
2023-05-26T15:31:33.383Z,25.12
2023-05-26T15:34:00.805Z,25.07
2023-05-26T15:36:28.547Z,25.09
2023-05-26T15:38:58.025Z,25.07
2023-05-26T15:41:30.022Z,24.92
2023-05-26T15:44:04.101Z,24.69
2023-05-26T15:46:31.643Z,24.33
2023-05-26T15:48:59.102Z,23.88
2023-05-26T15:51:26.450Z,23.42
2023-05-26T15:53:53.824Z,22.97
2023-05-26T15:56:21.367Z,22.53
2023-05-26T15:58:48.849Z,22.07
2023-05-26T16:01:19.055Z,21.67
2023-05-26T16:03:47.218Z,21.34
2023-05-26T16:06:15.214Z,21.10
2023-05-26T16:08:43.158Z,20.90
2023-05-26T16:11:10.602Z,20.76
2023-05-26T16:13:37.939Z,20.68
2023-05-26T16:16:05.802Z,20.57
2023-05-26T16:18:33.399Z,20.48
2023-05-26T16:21:01.052Z,20.40
2023-05-26T16:23:28.784Z,20.33
2023-05-26T16:25:56.302Z,20.22
2023-05-26T16:28:24.262Z,20.20
2023-05-26T16:30:53.648Z,20.13
2023-05-26T16:33:21.846Z,20.05
2023-05-26T16:35:54.294Z,20.06
2023-05-26T16:38:28.645Z,19.96
2023-05-26T16:40:58.509Z,19.88
2023-05-26T16:43:46.663Z,19.84
2023-05-26T16:46:13.063Z,19.74
2023-05-26T16:48:40.338Z,19.70
2023-05-26T16:51:07.584Z,19.70
2023-05-26T16:53:35.084Z,19.66
2023-05-26T16:56:02.405Z,19.61
2023-05-26T16:58:29.960Z,19.55
2023-05-26T17:00:57.391Z,19.50
2023-05-26T17:03:27.994Z,19.46
2023-05-26T17:05:55.840Z,19.40
2023-05-26T17:08:23.576Z,19.33
2023-05-26T17:10:51.631Z,19.25
2023-05-26T17:13:18.991Z,19.25
2023-05-26T17:15:46.345Z,19.23
2023-05-26T17:18:14.667Z,19.22
2023-05-26T17:20:44.763Z,19.11
2023-05-26T17:23:13.841Z,19.11
2023-05-26T17:25:41.180Z,19.06
2023-05-26T17:28:10.628Z,19.02
2023-05-26T17:30:38.451Z,18.95
2023-05-26T17:33:06.011Z,18.93
2023-05-26T17:35:35.453Z,18.84
2023-05-26T17:38:03.677Z,18.79
2023-05-26T17:40:31.381Z,18.78
2023-05-26T17:42:58.636Z,18.74
2023-05-26T17:45:29.347Z,18.70
2023-05-26T17:47:56.688Z,18.59
2023-05-26T17:50:24.198Z,18.56
2023-05-26T17:52:51.646Z,18.52
2023-05-26T17:55:24.492Z,18.45
2023-05-26T17:57:52.105Z,18.48
2023-05-26T18:00:20.244Z,18.48
2023-05-26T18:02:48.994Z,18.45
2023-05-26T18:05:19.049Z,18.43
2023-05-26T18:07:51.376Z,18.32
2023-05-26T18:10:18.855Z,18.18
2023-05-26T18:12:46.315Z,18.00
2023-05-26T18:15:15.085Z,17.92
2023-05-26T18:17:42.604Z,17.79
2023-05-26T18:20:11.449Z,17.71
2023-05-26T18:22:40.494Z,17.62
2023-05-26T18:25:11.261Z,17.53
2023-05-26T18:27:39.248Z,17.43
2023-05-26T18:30:07.779Z,17.41
2023-05-26T18:32:35.219Z,17.32
2023-05-26T18:35:02.573Z,17.22
2023-05-26T18:37:31.291Z,17.12
2023-05-26T18:40:01.553Z,17.02
2023-05-26T18:42:29.210Z,16.90
2023-05-26T18:44:58.187Z,16.82
2023-05-26T18:47:26.655Z,16.73
2023-05-26T18:49:55.685Z,16.62
2023-05-26T18:52:23.342Z,16.58
2023-05-26T18:54:51.407Z,16.54
2023-05-26T18:57:19.138Z,16.50
2023-05-26T18:59:46.944Z,16.42
2023-05-26T19:02:14.526Z,16.33
2023-05-26T19:04:42.169Z,16.28
2023-05-26T19:07:10.821Z,16.18
2023-05-26T19:09:38.235Z,16.16
2023-05-26T19:12:05.883Z,16.03
2023-05-26T19:14:33.377Z,15.97
2023-05-26T19:17:00.748Z,15.90
2023-05-26T19:19:28.369Z,15.79
2023-05-26T19:21:56.851Z,15.70
2023-05-26T19:24:24.354Z,15.64
2023-05-26T19:26:51.772Z,15.55
2023-05-26T19:29:19.116Z,15.52
2023-05-26T19:31:46.509Z,15.45
2023-05-26T19:34:13.872Z,15.36
2023-05-26T19:36:41.965Z,15.27
2023-05-26T19:39:09.432Z,15.17
2023-05-26T19:41:37.222Z,15.10
2023-05-26T19:44:04.585Z,15.01
2023-05-26T19:46:32.822Z,14.89
2023-05-26T19:49:00.567Z,14.80
2023-05-26T19:51:27.944Z,14.73
2023-05-26T19:53:55.276Z,14.61
2023-05-26T19:56:23.516Z,14.59
2023-05-26T19:58:50.813Z,14.51
2023-05-26T20:01:20.687Z,14.39
2023-05-26T20:03:48.091Z,14.30
2023-05-26T20:06:15.749Z,14.24
2023-05-26T20:08:43.003Z,14.16
2023-05-26T20:11:10.378Z,14.09
2023-05-26T20:13:37.794Z,13.99
2023-05-26T20:16:06.961Z,13.92
2023-05-26T20:18:35.524Z,13.84
2023-05-26T20:21:03.028Z,13.77
2023-05-26T20:23:30.413Z,13.73
2023-05-26T20:25:57.780Z,13.62
2023-05-26T20:28:25.232Z,13.61
2023-05-26T20:30:52.517Z,13.59
2023-05-26T20:33:19.895Z,13.56
2023-05-26T20:35:47.450Z,13.51
2023-05-26T20:38:14.870Z,13.45
2023-05-26T20:40:42.365Z,13.45
2023-05-26T20:43:09.739Z,13.35
2023-05-26T20:45:38.634Z,13.30
2023-05-26T20:48:05.956Z,13.23
2023-05-26T20:50:33.361Z,13.22
2023-05-26T20:53:02.270Z,13.18
2023-05-26T20:55:35.143Z,13.12
2023-05-26T20:58:02.441Z,13.07
2023-05-26T21:00:29.902Z,13.00
2023-05-26T21:02:57.596Z,12.94
2023-05-26T21:05:27.407Z,12.90
2023-05-26T21:07:54.852Z,12.86
2023-05-26T21:10:22.336Z,12.76
2023-05-26T21:12:49.612Z,12.70
2023-05-26T21:15:17.235Z,12.69
2023-05-26T21:17:44.639Z,12.66
2023-05-26T21:20:12.053Z,12.60
2023-05-26T21:22:39.402Z,12.52
2023-05-26T21:25:08.996Z,12.48
2023-05-26T21:27:36.405Z,12.44
2023-05-26T21:30:05.556Z,12.39
2023-05-26T21:32:32.923Z,12.35
2023-05-26T21:35:00.436Z,12.32
2023-05-26T21:37:27.777Z,12.28
2023-05-26T21:39:55.129Z,12.25
2023-05-26T21:42:23.396Z,12.20
2023-05-26T21:44:51.769Z,12.16
2023-05-26T21:47:20.688Z,12.14
2023-05-26T21:49:48.479Z,12.08
2023-05-26T21:52:15.923Z,12.02
2023-05-26T21:54:43.234Z,11.98
2023-05-26T21:57:10.788Z,11.97
2023-05-26T21:59:38.296Z,11.93
2023-05-26T22:02:06.257Z,11.91
2023-05-26T22:04:33.872Z,11.85
2023-05-26T22:07:01.178Z,11.83
2023-05-26T22:09:28.577Z,11.78
2023-05-26T22:11:56.028Z,11.77
2023-05-26T22:14:26.177Z,11.70
2023-05-26T22:16:54.750Z,11.63
2023-05-26T22:19:22.230Z,11.61
2023-05-26T22:21:49.544Z,11.60
2023-05-26T22:24:16.918Z,11.55
2023-05-26T22:26:44.998Z,11.52
2023-05-26T22:29:12.541Z,11.46
2023-05-26T22:31:39.878Z,11.41
2023-05-26T22:34:07.178Z,11.37
2023-05-26T22:36:34.439Z,11.36
2023-05-26T22:39:06.085Z,11.36
2023-05-26T22:41:34.283Z,11.30
2023-05-26T22:44:01.593Z,11.20
2023-05-26T22:46:30.226Z,11.24
2023-05-26T22:48:57.617Z,11.20
2023-05-26T22:51:25.176Z,11.19
2023-05-26T22:53:52.459Z,11.17
2023-05-26T22:56:20.121Z,11.13
2023-05-26T22:58:48.185Z,11.08
2023-05-26T23:01:15.572Z,11.02
2023-05-26T23:03:43.087Z,11.03
2023-05-26T23:06:10.656Z,10.99
2023-05-26T23:08:38.841Z,10.98
2023-05-26T23:11:10.110Z,10.92
2023-05-26T23:13:38.262Z,10.89
2023-05-26T23:16:06.795Z,10.87
2023-05-26T23:18:35.164Z,10.85
2023-05-26T23:21:03.093Z,10.78
2023-05-26T23:23:30.469Z,10.71
2023-05-26T23:25:58.443Z,10.71
2023-05-26T23:28:25.874Z,10.65
2023-05-26T23:30:53.310Z,10.64
2023-05-26T23:33:20.615Z,10.63
2023-05-26T23:35:48.258Z,10.56
2023-05-26T23:38:16.230Z,10.58
2023-05-26T23:40:43.860Z,10.54
2023-05-26T23:43:12.141Z,10.52
2023-05-26T23:45:39.862Z,10.46
2023-05-26T23:48:07.535Z,10.44
2023-05-26T23:50:34.889Z,10.39
2023-05-26T23:53:02.275Z,10.33
2023-05-26T23:55:29.588Z,10.33
2023-05-26T23:57:57.013Z,10.29
